createdAt,value
2022-08-17T00:00:34.588Z,9.30
2022-08-17T00:03:19.749Z,9.13
2022-08-17T00:05:52.831Z,9.65
2022-08-17T00:08:37.804Z,9.23
2022-08-17T00:12:40.524Z,8.70
2022-08-17T00:14:54.588Z,6.68
2022-08-17T00:17:27.189Z,7.72
2022-08-17T00:20:23.364Z,8.05
2022-08-17T00:23:10.297Z,6.80
2022-08-17T00:25:40.825Z,8.23
2022-08-17T00:28:08.392Z,6.35
2022-08-17T00:30:53.058Z,7.30
2022-08-17T00:33:27.053Z,6.80
2022-08-17T00:35:57.447Z,7.20
2022-08-17T00:38:26.374Z,6.30
2022-08-17T00:41:00.113Z,5.88
2022-08-17T00:43:31.945Z,6.82
2022-08-17T00:46:01.663Z,7.82
2022-08-17T00:48:30.731Z,6.85
2022-08-17T00:51:05.157Z,7.15
2022-08-17T00:53:34.907Z,7.20
2022-08-17T00:56:06.100Z,5.75
2022-08-17T00:58:36.194Z,9.05
2022-08-17T01:01:05.750Z,6.65
2022-08-17T01:03:35.139Z,7.30
2022-08-17T01:06:05.949Z,6.20
2022-08-17T01:08:33.609Z,6.93
2022-08-17T01:11:02.408Z,6.63
2022-08-17T01:13:39.755Z,9.40
2022-08-17T01:16:16.129Z,8.23
2022-08-17T01:18:44.606Z,10.40
2022-08-17T01:21:20.572Z,6.38
2022-08-17T01:23:49.655Z,6.72
2022-08-17T01:26:18.088Z,5.60
2022-08-17T01:28:53.655Z,7.10
2022-08-17T01:31:24.179Z,5.55
2022-08-17T01:33:51.755Z,6.57
2022-08-17T01:36:19.137Z,6.65
2022-08-17T01:38:46.673Z,6.68
2022-08-17T01:41:16.776Z,6.32
2022-08-17T01:43:47.774Z,6.05
2022-08-17T01:46:17.130Z,6.32
2022-08-17T01:48:47.696Z,9.65
2022-08-17T01:51:16.114Z,6.68
2022-08-17T01:53:49.067Z,7.85
2022-08-17T01:56:21.894Z,9.07
2022-08-17T01:58:50.223Z,6.25
2022-08-17T02:01:20.137Z,5.68
2022-08-17T02:03:59.488Z,6.28
2022-08-17T02:06:29.742Z,6.85
2022-08-17T02:09:01.740Z,6.70
2022-08-17T02:11:33.318Z,7.20
2022-08-17T02:14:03.393Z,6.68
2022-08-17T02:16:37.189Z,9.80
2022-08-17T02:19:08.344Z,7.90
2022-08-17T02:21:35.837Z,6.80
2022-08-17T02:24:04.183Z,6.80
2022-08-17T02:26:32.934Z,9.60
2022-08-17T02:29:01.520Z,6.82
2022-08-17T02:31:31.205Z,7.53
2022-08-17T02:34:03.888Z,7.13
2022-08-17T02:36:34.489Z,10.45
2022-08-17T02:39:02.325Z,6.93
2022-08-17T02:41:29.863Z,6.03
2022-08-17T02:43:58.889Z,6.30
2022-08-17T02:46:28.442Z,7.35
2022-08-17T02:51:24.367Z,8.57
2022-08-17T02:53:52.101Z,6.38
2022-08-17T02:56:19.676Z,9.52
2022-08-17T02:58:47.165Z,7.53
2022-08-17T03:01:16.256Z,8.07
2022-08-17T03:03:44.892Z,8.05
2022-08-17T03:06:12.701Z,6.30
2022-08-17T03:08:40.759Z,7.00
2022-08-17T03:11:10.582Z,6.97
2022-08-17T03:13:37.964Z,8.00
2022-08-17T03:16:05.822Z,9.48
2022-08-17T03:18:35.149Z,8.38
2022-08-17T03:21:04.684Z,6.28
2022-08-17T03:26:01.169Z,7.28
2022-08-17T03:28:29.757Z,8.35
2022-08-17T03:30:59.153Z,7.25
2022-08-17T03:33:26.492Z,7.50
2022-08-17T03:35:55.529Z,6.10
2022-08-17T03:38:23.381Z,6.55
2022-08-17T03:40:59.066Z,7.53
2022-08-17T03:43:29.898Z,8.15
2022-08-17T03:46:26.907Z,8.43
2022-08-17T03:49:15.481Z,5.68
2022-08-17T03:52:04.303Z,7.80
2022-08-17T03:54:51.024Z,6.43
2022-08-17T03:57:19.385Z,7.35
2022-08-17T03:59:47.685Z,7.65
2022-08-17T04:02:20.231Z,5.38
2022-08-17T04:04:51.065Z,6.35
2022-08-17T04:07:22.109Z,5.70
2022-08-17T04:09:49.711Z,9.32
2022-08-17T04:12:22.756Z,5.75
2022-08-17T04:14:53.347Z,5.40
2022-08-17T04:17:24.405Z,5.63
2022-08-17T04:19:52.716Z,6.75
2022-08-17T04:22:30.333Z,6.55
2022-08-17T04:25:06.973Z,7.18
2022-08-17T04:27:34.440Z,6.88
2022-08-17T04:30:02.228Z,8.82
2022-08-17T04:33:00.742Z,10.93
2022-08-17T04:35:21.945Z,8.52
2022-08-17T04:37:51.332Z,10.65
2022-08-17T04:40:39.096Z,7.97
2022-08-17T04:43:10.390Z,5.57
2022-08-17T04:45:55.148Z,8.77
2022-08-17T04:48:33.366Z,6.47
2022-08-17T04:53:35.678Z,5.13
2022-08-17T04:56:03.934Z,5.47
2022-08-17T04:58:31.916Z,6.25
2022-08-17T05:00:59.296Z,5.85
2022-08-17T05:03:26.748Z,6.82
2022-08-17T05:05:54.299Z,9.35
2022-08-17T05:08:23.070Z,8.43
2022-08-17T05:10:52.843Z,5.10
2022-08-17T05:13:22.434Z,7.65
2022-08-17T05:15:55.213Z,10.35
2022-08-17T05:18:23.432Z,7.50
2022-08-17T05:23:22.812Z,6.43
2022-08-17T05:25:55.472Z,7.57
2022-08-17T05:28:28.013Z,8.93
2022-08-17T05:31:02.265Z,7.97
2022-08-17T05:33:35.271Z,5.03
2022-08-17T05:36:05.404Z,6.70
2022-08-17T05:38:34.718Z,7.07
2022-08-17T05:41:06.929Z,7.15
2022-08-17T05:43:37.756Z,9.65
2022-08-17T05:46:11.081Z,9.88
2022-08-17T05:48:40.541Z,5.88
2022-08-17T05:53:58.543Z,5.93
2022-08-17T05:56:42.371Z,5.00
2022-08-17T05:59:20.656Z,4.82
2022-08-17T06:01:57.883Z,4.70
2022-08-17T06:04:38.756Z,8.75
2022-08-17T06:07:12.548Z,11.25
2022-08-17T06:09:49.422Z,10.25
2022-08-17T06:12:34.395Z,19.75
2022-08-17T06:15:17.087Z,8.73
2022-08-17T06:17:44.945Z,5.82
2022-08-17T06:20:16.515Z,6.25
2022-08-17T06:22:49.630Z,9.57
2022-08-17T06:25:23.510Z,5.10
2022-08-17T06:27:55.932Z,5.10
2022-08-17T06:30:28.533Z,7.55
2022-08-17T06:33:22.522Z,4.68
2022-08-17T06:36:02.780Z,11.15
2022-08-17T06:38:50.174Z,7.78
2022-08-17T06:41:37.832Z,4.32
2022-08-17T06:44:43.152Z,5.05
2022-08-17T06:47:09.509Z,5.47
2022-08-17T06:49:47.852Z,4.35
2022-08-17T06:52:56.057Z,7.40
2022-08-17T06:55:18.583Z,4.70
2022-08-17T06:57:51.866Z,8.90
2022-08-17T07:00:24.057Z,4.82
2022-08-17T07:03:03.094Z,6.95
2022-08-17T07:05:34.240Z,8.77
2022-08-17T07:08:09.440Z,6.80
2022-08-17T07:10:43.043Z,8.15
2022-08-17T07:13:25.714Z,7.57
2022-08-17T07:16:05.481Z,6.20
2022-08-17T07:18:34.445Z,7.40
2022-08-17T07:21:17.542Z,9.13
2022-08-17T07:24:01.771Z,7.10
2022-08-17T07:26:30.785Z,8.23
2022-08-17T07:29:06.019Z,9.32
2022-08-17T07:31:39.978Z,8.13
2022-08-17T07:34:14.685Z,7.32
2022-08-17T07:36:42.984Z,7.50
2022-08-17T07:39:11.436Z,6.93
2022-08-17T07:41:53.512Z,7.22
2022-08-17T07:44:29.250Z,7.88
2022-08-17T07:47:21.327Z,6.07
2022-08-17T07:49:50.580Z,6.97
2022-08-17T07:52:48.128Z,5.85
2022-08-17T07:55:32.947Z,8.73
2022-08-17T07:58:02.209Z,4.65
2022-08-17T08:00:32.234Z,6.55
2022-08-17T08:03:12.298Z,6.85
2022-08-17T08:05:53.773Z,4.25
2022-08-17T08:08:36.511Z,5.28
2022-08-17T08:11:08.304Z,6.65
2022-08-17T08:13:45.786Z,6.72
2022-08-17T08:16:27.299Z,7.90
2022-08-17T08:18:58.539Z,6.00
2022-08-17T08:21:36.919Z,6.38
2022-08-17T08:24:24.665Z,9.02
2022-08-17T08:27:17.523Z,4.47
2022-08-17T08:29:53.861Z,5.75
2022-08-17T08:32:48.150Z,5.07
2022-08-17T08:35:32.957Z,5.70
2022-08-17T08:38:08.873Z,6.35
2022-08-17T08:40:51.000Z,5.15
2022-08-17T08:43:27.830Z,6.53
2022-08-17T08:46:01.152Z,5.47
2022-08-17T08:49:11.991Z,5.53
2022-08-17T08:51:52.910Z,8.40
2022-08-17T08:54:35.026Z,4.00
2022-08-17T08:57:25.696Z,5.30
2022-08-17T09:00:15.955Z,7.95
2022-08-17T09:03:06.431Z,5.05
2022-08-17T09:05:52.909Z,7.28
2022-08-17T09:08:37.194Z,6.68
2022-08-17T09:11:18.472Z,8.27
2022-08-17T09:14:00.982Z,5.65
2022-08-17T09:16:35.203Z,4.90
2022-08-17T09:19:10.866Z,6.10
2022-08-17T09:21:48.431Z,5.25
2022-08-17T09:24:24.295Z,14.98
2022-08-17T09:26:58.992Z,5.60
2022-08-17T09:29:30.173Z,8.02
2022-08-17T09:32:01.720Z,7.07
2022-08-17T09:34:34.249Z,7.85
2022-08-17T09:37:18.201Z,10.65
2022-08-17T09:39:56.759Z,10.23
2022-08-17T09:42:31.383Z,2.80
2022-08-17T09:45:15.618Z,2.90
2022-08-17T09:47:48.892Z,10.80
2022-08-17T09:50:55.287Z,7.15
2022-08-17T09:53:12.555Z,3.40
2022-08-17T09:55:58.338Z,5.35
2022-08-17T09:58:40.786Z,3.70
2022-08-17T10:01:21.279Z,3.35
2022-08-17T10:04:09.625Z,5.45
2022-08-17T10:06:48.649Z,6.10
2022-08-17T10:12:15.706Z,6.80
2022-08-17T10:14:58.621Z,7.18
2022-08-17T10:17:43.504Z,5.07
2022-08-17T10:20:16.573Z,5.47
2022-08-17T10:23:15.402Z,2.58
2022-08-17T10:26:08.636Z,7.38
2022-08-17T10:28:47.287Z,7.28
2022-08-17T10:31:40.054Z,7.15
2022-08-17T10:34:38.872Z,8.20
2022-08-17T10:37:33.389Z,5.13
2022-08-17T10:40:19.183Z,10.40
2022-08-17T10:42:51.825Z,4.22
2022-08-17T10:45:26.881Z,6.22
2022-08-17T10:48:05.239Z,6.18
2022-08-17T10:51:02.219Z,9.70
2022-08-17T10:53:58.059Z,4.78
2022-08-17T10:56:43.441Z,4.55
2022-08-17T10:59:47.881Z,3.95
2022-08-17T11:02:23.364Z,7.32
2022-08-17T11:05:02.481Z,5.15
2022-08-17T11:07:46.946Z,4.78
2022-08-17T11:10:30.660Z,4.80
2022-08-17T11:13:04.526Z,5.90
2022-08-17T11:15:50.736Z,6.55
2022-08-17T11:18:38.731Z,6.55
2022-08-17T11:21:22.683Z,10.07
2022-08-17T11:24:14.875Z,4.25
2022-08-17T11:26:47.756Z,4.55
2022-08-17T11:29:24.657Z,3.25
2022-08-17T11:32:03.741Z,6.20
2022-08-17T11:40:15.033Z,7.63
2022-08-17T11:43:09.617Z,4.40
2022-08-17T11:45:56.893Z,8.02
2022-08-17T11:48:54.168Z,3.40
2022-08-17T11:51:33.904Z,9.80
2022-08-17T11:56:59.421Z,3.78
2022-08-17T11:59:59.073Z,3.40
2022-08-17T12:02:35.716Z,3.17
2022-08-17T12:05:27.629Z,3.78
2022-08-17T12:08:06.188Z,4.00
2022-08-17T12:10:37.088Z,3.55
2022-08-17T12:13:11.007Z,4.20
2022-08-17T12:15:43.282Z,7.90
2022-08-17T12:18:19.710Z,3.17
2022-08-17T12:21:01.161Z,3.40
2022-08-17T12:23:38.240Z,6.57
2022-08-17T12:26:12.930Z,4.80
2022-08-17T12:28:45.890Z,4.97
2022-08-17T12:31:19.666Z,4.95
2022-08-17T12:33:48.145Z,3.17
2022-08-17T12:41:33.145Z,3.05
2022-08-17T12:44:03.357Z,5.95
2022-08-17T12:46:35.109Z,3.38
2022-08-17T12:49:27.016Z,4.50
2022-08-17T12:52:03.054Z,3.53
2022-08-17T12:54:40.384Z,4.80
2022-08-17T12:57:13.709Z,4.95
2022-08-17T12:59:43.600Z,6.28
2022-08-17T13:02:21.997Z,14.45
2022-08-17T13:04:49.813Z,3.55
2022-08-17T13:07:28.430Z,5.28
2022-08-17T13:09:57.432Z,4.00
2022-08-17T13:12:30.379Z,6.50
2022-08-17T13:14:58.220Z,6.93
2022-08-17T13:17:28.097Z,5.78
2022-08-17T13:19:55.506Z,5.97
2022-08-17T13:22:24.017Z,10.23
2022-08-17T13:24:54.211Z,4.68
2022-08-17T13:27:26.211Z,5.65
2022-08-17T13:29:57.394Z,6.80
2022-08-17T13:32:36.027Z,4.32
2022-08-17T13:35:35.400Z,6.88
2022-08-17T13:38:09.096Z,6.38
2022-08-17T13:40:43.476Z,7.05
2022-08-17T13:43:12.576Z,6.53
2022-08-17T13:45:50.770Z,8.85
2022-08-17T13:48:24.992Z,7.32
2022-08-17T13:51:24.936Z,8.68
2022-08-17T13:53:56.545Z,8.82
2022-08-17T13:56:37.621Z,10.98
2022-08-17T13:59:11.437Z,10.10
2022-08-17T14:01:41.311Z,10.43
2022-08-17T14:04:11.663Z,10.50
2022-08-17T14:06:52.582Z,10.23
2022-08-17T14:09:24.472Z,11.77
2022-08-17T14:11:54.095Z,9.75
2022-08-17T14:14:23.535Z,13.05
2022-08-17T14:16:51.143Z,11.60
2022-08-17T14:19:22.537Z,11.48
2022-08-17T14:21:51.934Z,12.55
2022-08-17T14:24:32.436Z,12.18
2022-08-17T14:27:00.985Z,12.57
2022-08-17T14:29:36.265Z,13.45
2022-08-17T14:32:11.682Z,13.25
2022-08-17T14:34:39.665Z,13.07
2022-08-17T14:37:07.308Z,13.40
2022-08-17T14:39:35.920Z,13.17
2022-08-17T14:42:04.074Z,12.45
2022-08-17T14:44:33.250Z,13.95
2022-08-17T14:47:00.766Z,13.55
2022-08-17T14:49:31.785Z,12.43
2022-08-17T14:52:01.708Z,13.65
2022-08-17T14:54:34.250Z,13.02
2022-08-17T14:57:25.923Z,14.05
2022-08-17T14:59:57.723Z,13.95
2022-08-17T15:02:29.471Z,13.13
2022-08-17T15:05:05.607Z,12.40
2022-08-17T15:07:33.999Z,16.10
2022-08-17T15:10:02.667Z,12.55
2022-08-17T15:12:33.562Z,13.07
2022-08-17T15:15:04.789Z,12.30
2022-08-17T15:17:44.504Z,12.73
2022-08-17T15:20:15.412Z,12.95
2022-08-17T15:22:44.964Z,13.55
2022-08-17T15:25:13.784Z,14.23
2022-08-17T15:30:12.046Z,13.65
2022-08-17T15:32:50.569Z,13.57
2022-08-17T15:35:27.227Z,15.77
2022-08-17T15:38:08.104Z,12.98
2022-08-17T15:40:40.609Z,13.00
2022-08-17T15:43:11.414Z,11.27
2022-08-17T15:45:41.022Z,12.07
2022-08-17T15:48:09.153Z,14.05
2022-08-17T15:50:36.836Z,12.65
2022-08-17T15:53:05.081Z,12.93
2022-08-17T15:55:33.341Z,13.15
2022-08-17T15:58:01.468Z,12.95
2022-08-17T16:00:29.624Z,13.77
2022-08-17T16:03:45.180Z,12.30
2022-08-17T16:05:50.665Z,14.20
2022-08-17T16:08:21.246Z,13.63
2022-08-17T16:10:50.327Z,12.85
2022-08-17T16:13:18.370Z,16.75
2022-08-17T16:15:51.119Z,12.23
2022-08-17T16:18:32.099Z,12.48
2022-08-17T16:21:20.063Z,12.77
2022-08-17T16:23:49.245Z,12.52
2022-08-17T16:28:44.249Z,12.73
2022-08-17T16:31:12.280Z,14.35
2022-08-17T16:33:42.224Z,13.30
2022-08-17T16:36:31.004Z,11.80
2022-08-17T16:38:59.739Z,15.32
2022-08-17T16:41:46.375Z,14.90
2022-08-17T16:44:17.269Z,13.38
2022-08-17T16:46:47.259Z,16.23
2022-08-17T16:49:35.613Z,13.85
2022-08-17T16:52:10.312Z,14.73
2022-08-17T16:54:41.967Z,16.52
2022-08-17T16:57:11.255Z,15.50
2022-08-17T16:59:43.712Z,13.75
2022-08-17T17:02:16.056Z,17.40
2022-08-17T17:04:51.983Z,16.27
2022-08-17T17:07:51.184Z,14.25
2022-08-17T17:10:22.841Z,15.03
2022-08-17T17:13:01.303Z,15.88
2022-08-17T17:15:43.587Z,14.38
2022-08-17T17:18:13.454Z,15.43
2022-08-17T17:20:48.411Z,17.75
2022-08-17T17:23:36.441Z,16.13
2022-08-17T17:26:12.245Z,17.30
2022-08-17T17:28:58.634Z,17.58
2022-08-17T17:31:33.965Z,18.02
2022-08-17T17:34:04.685Z,16.42
2022-08-17T17:36:40.260Z,18.95
2022-08-17T17:39:14.056Z,16.75
2022-08-17T17:41:47.372Z,16.92
2022-08-17T17:44:19.850Z,19.48
2022-08-17T17:46:53.139Z,14.82
2022-08-17T17:49:21.868Z,14.38
2022-08-17T17:52:10.017Z,14.82
2022-08-17T17:54:54.474Z,20.15
2022-08-17T17:57:32.714Z,23.98
2022-08-17T18:00:08.397Z,18.20
2022-08-17T18:02:54.137Z,18.73
2022-08-17T18:05:53.858Z,24.13
2022-08-17T18:08:35.091Z,22.83
2022-08-17T18:11:24.243Z,20.23
2022-08-17T18:14:14.907Z,21.02
2022-08-17T18:16:42.895Z,20.45
2022-08-17T18:19:14.502Z,30.30
2022-08-17T18:21:46.037Z,18.95
2022-08-17T18:24:14.761Z,18.77
2022-08-17T18:26:53.920Z,19.40
2022-08-17T18:29:31.782Z,18.45
2022-08-17T18:32:27.799Z,23.45
2022-08-17T18:34:57.182Z,22.40
2022-08-17T18:37:37.629Z,24.27
2022-08-17T18:40:26.554Z,16.20
2022-08-17T18:43:05.628Z,19.13
2022-08-17T18:48:18.553Z,19.35
2022-08-17T18:50:46.067Z,18.05
2022-08-17T18:53:30.337Z,18.75
2022-08-17T18:56:23.436Z,28.83
2022-08-17T18:58:54.848Z,27.95
2022-08-17T19:01:52.800Z,22.75
2022-08-17T19:04:36.705Z,23.23
2022-08-17T19:07:25.105Z,21.83
2022-08-17T19:09:59.459Z,21.90
2022-08-17T19:12:34.113Z,24.63
2022-08-17T19:15:03.150Z,22.42
2022-08-17T19:17:39.891Z,18.85
2022-08-17T19:20:15.887Z,21.42
2022-08-17T19:23:03.204Z,22.52
2022-08-17T19:25:34.592Z,21.98
2022-08-17T19:28:22.647Z,25.52
2022-08-17T19:33:31.892Z,22.90
2022-08-17T19:36:08.465Z,16.15
2022-08-17T19:38:48.936Z,19.48
2022-08-17T19:41:24.474Z,18.27
2022-08-17T19:44:16.316Z,19.63
2022-08-17T19:46:49.936Z,18.08
2022-08-17T19:49:41.503Z,17.45
2022-08-17T19:52:37.494Z,17.55
2022-08-17T19:55:18.277Z,17.23
2022-08-17T19:57:59.142Z,18.15
2022-08-17T20:00:32.539Z,21.98
2022-08-17T20:03:08.085Z,17.30
2022-08-17T20:06:01.389Z,16.65
2022-08-17T20:08:33.390Z,19.05
2022-08-17T20:11:08.983Z,20.75
2022-08-17T20:13:43.072Z,22.08
2022-08-17T20:16:12.939Z,16.17
2022-08-17T20:18:51.145Z,17.98
2022-08-17T20:21:27.280Z,16.75
2022-08-17T20:24:02.146Z,22.98
2022-08-17T20:26:55.142Z,17.88
2022-08-17T20:29:37.570Z,16.38
2022-08-17T20:32:21.739Z,17.80
2022-08-17T20:35:00.688Z,19.60
2022-08-17T20:37:34.515Z,19.35
2022-08-17T20:40:30.781Z,16.55
2022-08-17T20:42:58.951Z,17.33
2022-08-17T20:45:53.238Z,21.27
2022-08-17T20:48:38.331Z,18.10
2022-08-17T20:51:26.369Z,17.70
2022-08-17T20:54:27.976Z,18.05
2022-08-17T20:56:58.191Z,18.10
2022-08-17T21:00:01.237Z,18.20
2022-08-17T21:02:33.103Z,20.27
2022-08-17T21:07:58.190Z,20.77
2022-08-17T21:10:35.813Z,17.52
2022-08-17T21:13:48.685Z,18.77
2022-08-17T21:16:41.607Z,20.42
2022-08-17T21:19:26.127Z,21.95
2022-08-17T21:22:12.814Z,18.38
2022-08-17T21:24:54.275Z,18.42
2022-08-17T21:27:41.368Z,19.85
2022-08-17T21:30:16.420Z,18.60
2022-08-17T21:32:45.565Z,18.98
2022-08-17T21:35:49.864Z,18.27
2022-08-17T21:38:23.521Z,17.55
2022-08-17T21:40:53.419Z,17.40
2022-08-17T21:43:25.763Z,17.15
2022-08-17T21:45:59.464Z,19.98
2022-08-17T21:48:30.171Z,17.75
2022-08-17T21:53:36.937Z,19.52
2022-08-17T21:56:05.522Z,20.83
2022-08-17T21:58:34.870Z,18.20
2022-08-17T22:01:20.036Z,19.13
2022-08-17T22:03:56.592Z,21.25
2022-08-17T22:06:26.733Z,15.75
2022-08-17T22:09:10.831Z,15.57
2022-08-17T22:11:55.528Z,23.92
2022-08-17T22:14:26.030Z,20.08
2022-08-17T22:17:16.731Z,17.60
2022-08-17T22:19:49.318Z,19.25
2022-08-17T22:22:32.673Z,16.73
2022-08-17T22:25:04.621Z,19.67
2022-08-17T22:27:52.424Z,15.70
2022-08-17T22:30:33.685Z,17.85
2022-08-17T22:33:17.906Z,16.42
2022-08-17T22:35:47.584Z,19.73
2022-08-17T22:38:32.429Z,18.67
2022-08-17T22:41:42.345Z,16.70
2022-08-17T22:44:21.040Z,16.08
2022-08-17T22:46:55.740Z,11.63
2022-08-17T22:49:26.785Z,15.38
2022-08-17T22:52:20.069Z,17.48
2022-08-17T22:55:09.628Z,19.42
2022-08-17T22:58:04.339Z,16.55
2022-08-17T23:00:37.610Z,17.38
2022-08-17T23:03:09.763Z,18.98
2022-08-17T23:05:38.442Z,15.65
2022-08-17T23:08:06.107Z,15.57
2022-08-17T23:10:33.875Z,17.60
2022-08-17T23:13:05.044Z,14.00
2022-08-17T23:15:33.985Z,14.35
2022-08-17T23:18:04.986Z,17.30
2022-08-17T23:20:35.189Z,16.88
2022-08-17T23:23:06.931Z,14.55
2022-08-17T23:25:35.516Z,15.27
2022-08-17T23:28:06.321Z,14.83
2022-08-17T23:30:39.462Z,13.45
2022-08-17T23:33:14.451Z,15.82
2022-08-17T23:35:42.113Z,18.02
2022-08-17T23:38:09.913Z,19.05
2022-08-17T23:40:39.227Z,18.98
2022-08-17T23:43:24.338Z,19.13
2022-08-17T23:45:54.280Z,18.70
2022-08-17T23:48:36.345Z,17.55
2022-08-17T23:51:08.848Z,14.85
2022-08-17T23:53:42.124Z,16.08
2022-08-17T23:56:11.429Z,18.23
2022-08-17T23:58:42.713Z,17.40
